Terminal Aerodrome Forecast
Issued by NWS Billings, MT

Home | Current Version | Previous Version | Text Only | Print | Product List | Glossary On
Versions: 1 2 3 4 5 6 7 8 9 10 11 12
000
FTUS45 KBYZ 312339
TAFBIL
TAF
KBIL 312339Z 0100/0124 13012KT P6SM FEW100 FEW200
     FM010500 22007KT P6SM SCT150 WS010/19035KT
     FM011100 22008KT P6SM SCT150
     FM012100 17009KT P6SM VCSH FEW100 SCT150=

USA.gov is the U.S. government's official web portal to all federal, state and local government web resources and services.